Skip to main content.

Regional Weather Summary








Warning: A non-numeric value encountered in /home/nwawlqmy/public_html/regionalwx.php on line 172
Station Name-Location
 
Time
 
Baro
Pressure
Outside
Temp
 Temp
Max
Temp
Min
Dew
Point
RH
%
Wind
Speed
Average
Wind Dir
Wind Max
Last Hr
Wind
Gust Max
Rain
Today
Rain
Last Hr
Rain Rate
in/hr
Rain
Month
Rain
Year
Vermilionweather-Near Lake Vermilion18:01:1129.99 inHg     76.6°F    78.1°F56.5°F53.8°F45%1.8 mph North9.2 mph 16.1 mph 0.00in0.00in0.00in/hr0.00in22.90in
EMA HQ's-Home Gardens- -:- -:- -Old Data  - -.-    - -.-- -.-- -.-- -%- - -.-- -- - -.-- - -.-- - . -
Warning: A non-numeric value encountered in /home/nwawlqmy/public_html/regionalwx.php on line 172
0.00in
0.00in/hr- - . -- - . -
Mahomet18:01:0830.01 inHg    74.8°F 77.2°F55.8°F61.3°F63%0.9 mph NE8.1 mph 11.6 mph 0.00in0.00in0.00in/hr0.00in28.59in

Version 2.12 6th August 2012

If you own a personal weather station
and would like to have your data displayed here,
use the "Contact admin" link at the bottom of the page
to find out how.

For full weather information visit the individual websites above
This page was created by Clevedon Weather using some basic php scripts from TNET Weather.
The script for displaying the data has been produced by Clevedon Weather but has been modified by Vermilionweather.com for it's own use.



Nearby METAR Reports

Nearby METAR Reports

 

KDNV - Danville, Illinois, USA
Distance from station: 0 0mi, 0km
Updated: Mon, 02-Aug-2021 5:40am CDT
NOT Current
Clear
Clear
 Wind from N
Wind: N 6 mph , 9 km/h
Temperature: 55°F , 13°C
Dew Point: 55°F , 13°C
Humidity: 100%
Barometer: 30.16 inHg , 1021.3 hPa
Clouds: Clear
Visibility: 7 miles , 11 km
2021/08/02 10:40 KDNV 021040Z AUTO 36005KT 7SM CLR 13/13 A3016 RMK AO2 T01300126
KTIP - Rantoul, Illinois, USA
Distance from station: W 30mi, 48km
Updated: Mon, 02-Aug-2021 5:35pm CDT
Partly Cloudy
Partly Cloudy
 Wind from ENE
Wind: ENE 7 mph , 11 km/h
Temperature: 75°F , 24°C
Dew Point: 54°F , 12°C
Humidity: 47%
Barometer: 30.11 inHg , 1019.6 hPa
Clouds: Partly Cloudy
Visibility: 10 miles , 16 km
Cloud details: Partly Cloudy 8000 ft
2021/08/02 22:35 KTIP 022235Z AUTO 06006KT 10SM SCT080 24/12 A3011 RMK AO2 T02350116
 
KPRG - Paris, Illinois, USA
Distance from station: S 35mi, 56km
Updated: Mon, 02-Aug-2021 5:55pm CDT
Clear
Clear
 Wind from NNE
Wind: NNE 5 mph , 7 km/h
Temperature: 75°F , 24°C
Dew Point: 59°F , 15°C
Humidity: 57%
Barometer: 30.10 inHg , 1019.3 hPa
Clouds: Clear
Visibility: 10 miles , 16 km
2021/08/02 22:55 KPRG 022255Z AUTO 02004KT 10SM CLR 24/15 A3010 RMK AO2 T02400154
KCMI - Champaign/Urbana, Illinois, USA
Distance from station: WSW 37mi, 60km
Updated: Mon, 02-Aug-2021 5:55pm CDT
Clear
Clear
 Wind from ENE
Wind: ENE 12 mph , 19 km/h
Temperature: 75°F , 24°C
Dew Point: 55°F , 13°C
Humidity: 50%
Barometer: 30.10 inHg , 1019.3 hPa
Clouds: Clear
Visibility: 10 miles , 16 km
2021/08/02 22:55 KCMI 022255Z 07010KT 10SM CLR 24/13 A3010 RMK AO2 T02440133 $
 
KLAF - Lafayette, Indiana, USA
Distance from station: ENE 38mi, 61km
Updated: Mon, 02-Aug-2021 5:54pm CDT
Few Clouds
Few Clouds
 Wind from N
Wind: N 7 mph , 11 km/h
Temperature: 77°F , 25°C
Dew Point: 54°F , 12°C
Humidity: 44%
Barometer: 30.09 inHg , 1019 hPa
Clouds: Few Clouds
Visibility: 10 miles , 16 km
Cloud details: Few Clouds 6500 ft
2021/08/02 22:54 KLAF 022254Z 01006KT 10SM FEW065 25/12 A3009 RMK AO2 SLP188 T02500117
KCFJ - Crawfordsville, Indiana, USA
Distance from station: ESE 39mi, 63km
Updated: Mon, 02-Aug-2021 5:55pm CDT
Clear
Clear
 Wind from calm
Wind: Calm
Temperature: 73°F , 23°C
Dew Point: 54°F , 12°C
Humidity: 50%
Barometer: 30.10 inHg , 1019.3 hPa
Clouds: Clear
Visibility: 10 miles , 16 km
2021/08/02 22:55 KCFJ 022255Z AUTO 00000KT 10SM CLR 23/12 A3010 RMK AO2 T02300120

Metar display script from Saratoga-Weather.org

Go To Top